North Londonderry, Pennsylvania
Current Conditions -  °F | °C
As of 2:58 PM on Tuesday 21 Oct 2014 (Local Time) from KMUI Reporting Station
Broken Clouds Broken Clouds  
Wind Chill: 62°   Ceiling: 6000
Heat Index: 62°   Visibility: 10mi
Dew Point: 53°   Wind: 5mph
Humidity: 72%   Direction: 340°NNW
Pressure: 29.83"   Gusts: NA
Location:  40.2909°N, 76.5834°W
Report Text: KMUI 211858Z AUTO 34004KT 10SM BKN060 17/12 A2983 RMK AO2 SLP104 T01670117 $
Loading
Personal Weather Stations






























Interactive Weather Map
Tropical Storm Tracking
New forecast layout! Learn more

10-Day Weather Forecast

Advertisements
Track Severe Weather on mobile